createdAt,value
2022-11-16T00:00:11.363Z,2.05
2022-11-16T00:02:39.396Z,3.70
2022-11-16T00:05:07.891Z,2.72
2022-11-16T00:07:36.084Z,2.30
2022-11-16T00:10:04.409Z,2.22
2022-11-16T00:12:32.766Z,3.13
2022-11-16T00:15:00.720Z,2.03
2022-11-16T00:17:28.741Z,1.98
2022-11-16T00:19:59.570Z,2.78
2022-11-16T00:22:27.560Z,3.08
2022-11-16T00:24:55.654Z,2.30
2022-11-16T00:27:23.741Z,3.45
2022-11-16T00:29:51.746Z,2.80
2022-11-16T00:32:19.854Z,2.72
2022-11-16T00:34:50.333Z,2.80
2022-11-16T00:37:18.289Z,2.95
2022-11-16T00:39:46.328Z,2.00
2022-11-16T00:42:14.572Z,2.17
2022-11-16T00:44:42.515Z,2.40
2022-11-16T00:47:10.549Z,3.13
2022-11-16T00:49:39.373Z,2.30
2022-11-16T00:52:07.373Z,2.13
2022-11-16T00:54:35.412Z,1.65
2022-11-16T00:57:03.736Z,2.22
2022-11-16T00:59:31.786Z,1.92
2022-11-16T01:01:59.775Z,1.65
2022-11-16T01:04:28.763Z,2.08
2022-11-16T01:06:56.790Z,2.63
2022-11-16T01:09:24.934Z,2.55
2022-11-16T01:12:11.208Z,2.58
2022-11-16T01:14:45.099Z,1.95
2022-11-16T01:17:14.713Z,2.22
2022-11-16T01:22:11.482Z,3.13
2022-11-16T01:24:39.587Z,1.92
2022-11-16T01:27:08.617Z,2.33
2022-11-16T01:29:36.701Z,1.58
2022-11-16T01:32:05.054Z,1.92
2022-11-16T01:34:33.263Z,1.73
2022-11-16T01:37:01.452Z,3.17
2022-11-16T01:39:29.677Z,1.88
2022-11-16T01:42:00.140Z,1.83
2022-11-16T01:44:34.168Z,1.88
2022-11-16T01:47:09.560Z,2.45
2022-11-16T01:49:43.423Z,2.88
2022-11-16T01:52:25.039Z,4.00
2022-11-16T01:54:55.216Z,3.10
2022-11-16T01:57:35.240Z,3.53
2022-11-16T02:00:07.362Z,3.42
2022-11-16T02:02:35.280Z,2.72
2022-11-16T02:05:05.156Z,3.70
2022-11-16T02:08:22.327Z,3.47
2022-11-16T02:11:10.503Z,2.13
2022-11-16T02:14:44.492Z,2.30
2022-11-16T02:17:40.782Z,2.58
2022-11-16T02:20:42.029Z,1.83
2022-11-16T02:24:13.405Z,2.47
2022-11-16T02:27:11.153Z,2.00
2022-11-16T02:29:58.786Z,2.45
2022-11-16T02:32:37.636Z,3.60
2022-11-16T02:35:51.141Z,1.80
2022-11-16T02:38:28.914Z,2.50
2022-11-16T02:41:04.628Z,3.90
2022-11-16T02:43:39.464Z,2.58
2022-11-16T02:46:15.141Z,2.72
2022-11-16T02:48:49.074Z,1.83
2022-11-16T02:51:20.388Z,2.30
2022-11-16T02:54:00.818Z,3.67
2022-11-16T02:56:30.832Z,2.20
2022-11-16T02:59:00.926Z,1.90
2022-11-16T03:01:35.580Z,1.48
2022-11-16T03:04:20.616Z,2.45
2022-11-16T03:06:51.346Z,1.48
2022-11-16T03:09:29.014Z,3.17
2022-11-16T03:12:01.121Z,1.85
2022-11-16T03:14:41.919Z,1.70
2022-11-16T03:17:22.202Z,3.05
2022-11-16T03:20:08.949Z,2.03
2022-11-16T03:22:47.781Z,3.13
2022-11-16T03:25:19.758Z,2.92
2022-11-16T03:28:09.698Z,2.40
2022-11-16T03:30:50.379Z,2.95
2022-11-16T03:33:29.551Z,2.30
2022-11-16T03:36:21.161Z,3.03
2022-11-16T03:38:51.659Z,2.35
2022-11-16T03:41:23.530Z,1.70
2022-11-16T03:43:54.708Z,2.28
2022-11-16T03:46:22.788Z,1.30
2022-11-16T03:49:03.067Z,1.70
2022-11-16T03:51:31.091Z,1.45
2022-11-16T03:53:59.245Z,2.28
2022-11-16T03:56:28.605Z,2.05
2022-11-16T03:58:56.637Z,1.67
2022-11-16T04:01:24.751Z,1.42
2022-11-16T04:03:53.941Z,1.92
2022-11-16T04:06:40.599Z,1.95
2022-11-16T04:09:30.945Z,2.08
2022-11-16T04:12:17.586Z,1.35
2022-11-16T04:15:05.292Z,1.17
2022-11-16T04:17:51.672Z,1.30
2022-11-16T04:20:38.335Z,2.55
2022-11-16T04:23:33.114Z,1.30
2022-11-16T04:26:01.448Z,1.48
2022-11-16T04:28:35.528Z,0.93
2022-11-16T04:31:26.207Z,3.00
2022-11-16T04:34:13.117Z,1.88
2022-11-16T04:36:59.917Z,1.55
2022-11-16T04:39:27.901Z,2.13
2022-11-16T04:42:15.103Z,1.92
2022-11-16T04:45:01.432Z,1.60
2022-11-16T04:47:33.916Z,1.67
2022-11-16T04:50:01.932Z,1.30
2022-11-16T04:52:30.046Z,1.40
2022-11-16T04:54:58.258Z,2.10
2022-11-16T04:57:26.312Z,1.27
2022-11-16T04:59:54.269Z,0.98
2022-11-16T05:02:22.606Z,1.60
2022-11-16T05:04:50.651Z,2.88
2022-11-16T05:07:18.741Z,1.58
2022-11-16T05:09:50.892Z,2.08
2022-11-16T05:12:28.074Z,3.80
2022-11-16T05:14:56.463Z,2.30
2022-11-16T05:17:25.819Z,1.92
2022-11-16T05:20:13.019Z,1.95
2022-11-16T05:22:41.987Z,1.67
2022-11-16T05:25:11.509Z,1.67
2022-11-16T05:27:41.023Z,1.48
2022-11-16T05:30:11.349Z,1.88
2022-11-16T05:32:39.314Z,3.15
2022-11-16T05:35:07.607Z,3.17
2022-11-16T05:37:36.801Z,2.13
2022-11-16T05:40:05.418Z,1.77
2022-11-16T05:42:33.430Z,2.15
2022-11-16T05:45:01.694Z,1.58
2022-11-16T05:47:31.858Z,2.45
2022-11-16T05:49:59.827Z,2.10
2022-11-16T05:52:27.934Z,1.98
2022-11-16T05:54:55.954Z,1.88
2022-11-16T05:57:23.861Z,1.50
2022-11-16T05:59:52.116Z,2.30
2022-11-16T06:02:20.125Z,1.70
2022-11-16T06:04:48.150Z,1.75
2022-11-16T06:07:17.988Z,2.20
2022-11-16T06:09:45.959Z,1.63
2022-11-16T06:12:13.881Z,2.30
2022-11-16T06:14:42.813Z,1.70
2022-11-16T06:17:15.005Z,2.15
2022-11-16T06:19:43.120Z,2.20
2022-11-16T06:22:13.215Z,2.17
2022-11-16T06:24:41.261Z,1.98
2022-11-16T06:27:09.292Z,2.08
2022-11-16T06:29:38.208Z,2.45
2022-11-16T06:32:06.295Z,1.98
2022-11-16T06:34:34.276Z,1.70
2022-11-16T06:37:02.453Z,2.10
2022-11-16T06:39:30.476Z,2.70
2022-11-16T06:41:58.391Z,1.55
2022-11-16T06:44:26.556Z,2.00
2022-11-16T06:46:54.549Z,2.70
2022-11-16T06:49:22.504Z,2.42
2022-11-16T06:51:52.141Z,2.28
2022-11-16T06:56:47.664Z,2.00
2022-11-16T06:59:15.822Z,2.20
2022-11-16T07:01:43.857Z,2.33
2022-11-16T07:04:12.673Z,1.90
2022-11-16T07:06:41.187Z,3.13
2022-11-16T07:09:10.275Z,2.33
2022-11-16T07:11:38.310Z,2.33
2022-11-16T07:14:07.362Z,2.58
2022-11-16T07:16:36.420Z,2.17
2022-11-16T07:19:05.706Z,2.47
2022-11-16T07:21:34.639Z,3.55
2022-11-16T07:24:05.403Z,2.55
2022-11-16T07:26:34.723Z,3.08
2022-11-16T07:29:05.082Z,3.00
2022-11-16T07:31:33.081Z,2.70
2022-11-16T07:34:01.047Z,2.90
2022-11-16T07:36:30.005Z,2.05
2022-11-16T07:38:57.934Z,3.22
2022-11-16T07:41:26.038Z,2.15
2022-11-16T07:43:54.703Z,2.25
2022-11-16T07:49:21.219Z,4.07
2022-11-16T07:51:49.221Z,3.47
2022-11-16T07:54:17.418Z,3.40
2022-11-16T07:56:46.821Z,3.83
2022-11-16T07:59:14.875Z,3.25
2022-11-16T08:01:42.945Z,3.15
2022-11-16T08:04:13.136Z,2.83
2022-11-16T08:06:41.126Z,4.13
2022-11-16T08:09:10.574Z,3.70
2022-11-16T08:11:38.844Z,3.58
2022-11-16T08:14:06.872Z,3.13
2022-11-16T08:16:34.978Z,3.80
2022-11-16T08:19:03.113Z,4.43
2022-11-16T08:21:31.368Z,4.00
2022-11-16T08:23:59.367Z,4.25
2022-11-16T08:26:31.101Z,5.15
2022-11-16T08:28:59.201Z,3.53
2022-11-16T08:31:29.546Z,3.55
2022-11-16T08:33:57.757Z,3.70
2022-11-16T08:36:25.952Z,4.97
2022-11-16T08:38:54.419Z,4.82
2022-11-16T08:41:22.969Z,5.43
2022-11-16T08:43:54.698Z,3.65
2022-11-16T08:46:22.744Z,4.80
2022-11-16T08:48:51.576Z,3.72
2022-11-16T08:54:04.422Z,3.78
2022-11-16T08:56:32.447Z,4.20
2022-11-16T08:59:00.556Z,5.38
2022-11-16T09:01:32.110Z,3.85
2022-11-16T09:04:01.331Z,4.10
2022-11-16T09:06:29.411Z,4.47
2022-11-16T09:09:01.436Z,4.78
2022-11-16T09:11:29.781Z,3.00
2022-11-16T09:14:00.636Z,4.15
2022-11-16T09:16:29.059Z,4.20
2022-11-16T09:18:57.223Z,3.25
2022-11-16T09:21:27.944Z,3.78
2022-11-16T09:23:58.077Z,3.63
2022-11-16T09:26:27.230Z,4.13
2022-11-16T09:28:58.789Z,3.70
2022-11-16T09:31:32.389Z,2.70
2022-11-16T09:34:00.408Z,3.00
2022-11-16T09:36:29.576Z,3.25
2022-11-16T09:39:28.772Z,4.15
2022-11-16T09:42:00.016Z,4.72
2022-11-16T09:44:41.824Z,3.38
2022-11-16T09:47:22.738Z,3.83
2022-11-16T09:50:02.740Z,5.57
2022-11-16T09:52:37.448Z,3.72
2022-11-16T09:55:30.249Z,4.00
2022-11-16T09:58:01.240Z,4.30
2022-11-16T10:00:31.617Z,4.60
2022-11-16T10:03:13.234Z,5.13
2022-11-16T10:06:05.719Z,5.18
2022-11-16T10:08:47.277Z,4.82
2022-11-16T10:11:37.946Z,5.35
2022-11-16T10:14:39.128Z,5.38
2022-11-16T10:17:21.835Z,4.45
2022-11-16T10:19:57.067Z,5.05
2022-11-16T10:22:54.274Z,4.38
2022-11-16T10:25:34.100Z,5.65
2022-11-16T10:28:17.877Z,4.45
2022-11-16T10:31:05.824Z,5.95
2022-11-16T10:33:37.678Z,3.80
2022-11-16T10:36:14.017Z,6.32
2022-11-16T10:38:44.517Z,4.20
2022-11-16T10:41:21.926Z,4.97
2022-11-16T10:43:50.166Z,5.47
2022-11-16T10:46:32.918Z,4.10
2022-11-16T10:49:27.867Z,4.13
2022-11-16T10:51:57.008Z,4.13
2022-11-16T10:54:25.022Z,3.25
2022-11-16T10:57:03.317Z,3.38
2022-11-16T10:59:43.913Z,5.00
2022-11-16T11:02:29.030Z,4.35
2022-11-16T11:05:06.149Z,4.32
2022-11-16T11:07:40.635Z,5.95
2022-11-16T11:10:28.782Z,2.28
2022-11-16T11:13:12.998Z,4.88
2022-11-16T11:15:43.222Z,2.53
2022-11-16T11:18:22.929Z,3.42
2022-11-16T11:21:14.324Z,3.60
2022-11-16T11:23:54.789Z,3.03
2022-11-16T11:26:41.945Z,3.13
2022-11-16T11:29:29.201Z,4.40
2022-11-16T11:32:16.953Z,3.40
2022-11-16T11:34:55.105Z,3.08
2022-11-16T11:37:36.804Z,3.55
2022-11-16T11:40:28.455Z,3.53
2022-11-16T11:43:05.135Z,3.33
2022-11-16T11:45:52.649Z,2.72
2022-11-16T11:48:40.758Z,5.43
2022-11-16T11:51:18.865Z,3.55
2022-11-16T11:53:55.140Z,4.53
2022-11-16T11:56:24.393Z,3.22
2022-11-16T11:58:53.032Z,5.45
2022-11-16T12:01:59.255Z,6.17
2022-11-16T12:04:55.857Z,4.28
2022-11-16T12:07:41.722Z,6.32
2022-11-16T12:10:47.885Z,7.57
2022-11-16T12:13:32.450Z,6.97
2022-11-16T12:16:34.283Z,3.85
2022-11-16T12:19:05.809Z,4.90
2022-11-16T12:21:57.510Z,4.65
2022-11-16T12:24:40.429Z,5.82
2022-11-16T12:27:21.192Z,5.13
2022-11-16T12:29:59.553Z,4.57
2022-11-16T12:32:33.346Z,4.43
2022-11-16T12:35:11.868Z,5.45
2022-11-16T12:38:24.822Z,7.20
2022-11-16T12:41:30.066Z,4.85
2022-11-16T12:44:03.813Z,5.95
2022-11-16T12:46:41.958Z,6.47
2022-11-16T12:49:28.258Z,4.10
2022-11-16T12:52:20.748Z,5.30
2022-11-16T12:55:24.921Z,6.25
2022-11-16T12:57:58.895Z,7.07
2022-11-16T13:00:29.032Z,9.55
2022-11-16T13:03:19.835Z,5.47
2022-11-16T13:06:09.172Z,5.05
2022-11-16T13:08:41.261Z,9.85
2022-11-16T13:11:44.828Z,5.28
2022-11-16T13:14:22.703Z,3.30
2022-11-16T13:16:52.086Z,5.55
2022-11-16T13:19:20.598Z,6.63
2022-11-16T13:22:04.511Z,7.35
2022-11-16T13:25:17.272Z,7.43
2022-11-16T13:28:14.787Z,7.25
2022-11-16T13:31:01.240Z,5.47
2022-11-16T13:34:01.616Z,5.70
2022-11-16T13:36:44.031Z,5.15
2022-11-16T13:39:21.600Z,5.32
2022-11-16T13:42:06.287Z,11.73
2022-11-16T13:44:36.425Z,8.38
2022-11-16T13:47:08.091Z,7.03
2022-11-16T13:49:41.825Z,5.65
2022-11-16T13:52:48.290Z,6.03
2022-11-16T13:55:34.511Z,5.80
2022-11-16T13:58:06.529Z,7.20
2022-11-16T14:00:37.606Z,5.13
2022-11-16T14:03:19.901Z,16.58
2022-11-16T14:05:49.952Z,7.20
2022-11-16T14:08:20.747Z,7.32
2022-11-16T14:10:53.121Z,3.97
2022-11-16T14:13:48.081Z,6.72
2022-11-16T14:16:55.755Z,5.93
2022-11-16T14:19:48.029Z,5.32
2022-11-16T14:22:22.248Z,7.45
2022-11-16T14:25:02.569Z,6.05
2022-11-16T14:27:51.897Z,8.52
2022-11-16T14:30:28.031Z,4.13
2022-11-16T14:32:58.112Z,5.13
2022-11-16T14:35:43.857Z,4.13
2022-11-16T14:38:33.026Z,7.05
2022-11-16T14:41:05.047Z,4.38
2022-11-16T14:43:52.013Z,6.65
2022-11-16T14:46:29.605Z,5.05
2022-11-16T14:48:59.800Z,6.15
2022-11-16T14:51:35.192Z,7.07
2022-11-16T14:54:08.695Z,6.43
2022-11-16T14:56:36.767Z,4.82
2022-11-16T14:59:04.785Z,5.05
2022-11-16T15:01:41.904Z,4.47
2022-11-16T15:04:12.109Z,6.45
2022-11-16T15:06:52.423Z,11.43
2022-11-16T15:09:30.512Z,5.95
2022-11-16T15:12:19.396Z,6.53
2022-11-16T15:14:59.701Z,9.43
2022-11-16T15:17:32.999Z,6.03
2022-11-16T15:20:27.018Z,6.10
2022-11-16T15:23:02.608Z,5.50
2022-11-16T15:25:43.624Z,4.60
2022-11-16T15:28:34.878Z,6.25
2022-11-16T15:31:08.132Z,6.05
2022-11-16T15:33:41.346Z,7.88
2022-11-16T15:36:33.107Z,7.10
2022-11-16T15:39:04.912Z,7.25
2022-11-16T15:41:33.586Z,5.32
2022-11-16T15:44:19.472Z,5.43
2022-11-16T15:46:53.844Z,4.72
2022-11-16T15:49:34.508Z,4.25
2022-11-16T15:52:03.231Z,5.38
2022-11-16T15:54:57.511Z,4.97
2022-11-16T15:57:26.068Z,4.88
2022-11-16T15:59:56.379Z,4.77
2022-11-16T16:02:32.094Z,4.25
2022-11-16T16:05:00.134Z,5.30
2022-11-16T16:07:42.616Z,4.60
2022-11-16T16:10:24.206Z,4.00
2022-11-16T16:13:02.944Z,4.22
2022-11-16T16:15:37.170Z,5.07
2022-11-16T16:18:37.564Z,5.75
2022-11-16T16:21:05.780Z,4.30
2022-11-16T16:23:33.952Z,6.05
2022-11-16T16:26:05.371Z,5.65
2022-11-16T16:28:33.352Z,5.88
2022-11-16T16:31:01.315Z,4.20
2022-11-16T16:33:32.324Z,4.57
2022-11-16T16:36:00.902Z,5.75
2022-11-16T16:38:29.648Z,5.43
2022-11-16T16:41:05.259Z,4.63
2022-11-16T16:43:33.789Z,6.30
2022-11-16T16:46:03.394Z,6.70
2022-11-16T16:48:31.891Z,5.40
2022-11-16T16:50:59.937Z,6.43
2022-11-16T16:53:27.956Z,6.65
2022-11-16T16:55:56.069Z,5.82
2022-11-16T16:58:24.047Z,5.80
2022-11-16T17:00:55.680Z,7.85
2022-11-16T17:03:27.585Z,4.93
2022-11-16T17:06:02.446Z,5.53
2022-11-16T17:08:39.069Z,4.82
2022-11-16T17:11:07.260Z,4.13
2022-11-16T17:13:35.398Z,5.25
2022-11-16T17:16:07.716Z,3.85
2022-11-16T17:18:36.662Z,3.90
2022-11-16T17:21:09.390Z,3.25
2022-11-16T17:23:39.101Z,4.20
2022-11-16T17:26:09.219Z,4.05
2022-11-16T17:28:37.160Z,4.00
2022-11-16T17:31:11.587Z,5.00
2022-11-16T17:33:43.965Z,5.30
2022-11-16T17:36:13.703Z,2.58
2022-11-16T17:38:42.638Z,4.00
2022-11-16T17:41:14.144Z,3.00
2022-11-16T17:43:46.189Z,3.58
2022-11-16T17:46:18.074Z,2.50
2022-11-16T17:48:47.933Z,2.35
2022-11-16T17:51:23.230Z,3.20
2022-11-16T17:53:51.488Z,5.32
2022-11-16T17:56:22.606Z,2.20
2022-11-16T17:58:57.202Z,4.32
2022-11-16T18:01:25.573Z,2.42
2022-11-16T18:03:53.565Z,2.83
2022-11-16T18:06:23.719Z,4.03
2022-11-16T18:08:52.335Z,2.30
2022-11-16T18:11:22.810Z,2.10
2022-11-16T18:14:01.167Z,3.22
2022-11-16T18:16:33.156Z,3.15
2022-11-16T18:19:06.167Z,3.28
2022-11-16T18:21:45.191Z,4.07
2022-11-16T18:24:13.509Z,2.30
2022-11-16T18:26:42.305Z,4.75
2022-11-16T18:29:17.483Z,1.98
2022-11-16T18:31:45.558Z,3.08
2022-11-16T18:34:15.410Z,2.97
2022-11-16T18:36:43.561Z,2.05
2022-11-16T18:39:11.620Z,2.45
2022-11-16T18:41:51.736Z,2.53
2022-11-16T18:44:23.064Z,4.32
2022-11-16T18:46:51.162Z,1.90
2022-11-16T18:49:19.247Z,1.63
2022-11-16T18:51:48.087Z,2.20
2022-11-16T18:54:16.106Z,2.20
2022-11-16T18:56:43.986Z,2.58
2022-11-16T18:59:12.240Z,2.42
2022-11-16T19:01:40.281Z,2.38
2022-11-16T19:04:09.492Z,1.50
2022-11-16T19:06:37.749Z,2.40
2022-11-16T19:09:10.279Z,2.20
2022-11-16T19:11:38.321Z,2.35
2022-11-16T19:14:08.492Z,2.53
2022-11-16T19:16:38.271Z,2.25
2022-11-16T19:19:09.791Z,1.98
2022-11-16T19:21:38.729Z,1.15
2022-11-16T19:24:07.900Z,1.52
2022-11-16T19:26:35.983Z,2.15
2022-11-16T19:29:05.019Z,1.80
2022-11-16T19:31:33.617Z,1.58
2022-11-16T19:34:07.291Z,2.17
2022-11-16T19:36:38.208Z,1.52
2022-11-16T19:39:07.017Z,1.65
2022-11-16T19:41:35.020Z,1.80
2022-11-16T19:44:05.018Z,2.17
2022-11-16T19:46:34.521Z,2.13
2022-11-16T19:49:03.031Z,2.08
2022-11-16T19:51:33.487Z,2.15
2022-11-16T19:54:02.943Z,1.73
2022-11-16T19:56:30.989Z,1.52
2022-11-16T19:59:00.007Z,2.85
2022-11-16T20:01:29.778Z,1.35
2022-11-16T20:04:01.199Z,2.33
2022-11-16T20:06:32.504Z,3.35
2022-11-16T20:09:04.553Z,2.75
2022-11-16T20:11:37.768Z,1.88
2022-11-16T20:14:08.667Z,3.25
2022-11-16T20:16:43.033Z,1.77
2022-11-16T20:19:12.149Z,1.77
2022-11-16T20:21:42.990Z,2.10
2022-11-16T20:24:15.896Z,2.22
2022-11-16T20:26:48.633Z,2.42
2022-11-16T20:29:19.577Z,1.40
2022-11-16T20:31:48.268Z,2.10
2022-11-16T20:34:18.119Z,1.33
2022-11-16T20:36:47.857Z,2.40
2022-11-16T20:39:18.779Z,3.03
2022-11-16T20:41:47.409Z,1.73
2022-11-16T20:44:23.874Z,1.73
2022-11-16T20:46:54.914Z,2.83
2022-11-16T20:49:22.925Z,1.80
2022-11-16T20:51:52.014Z,2.20
2022-11-16T20:54:20.137Z,1.77
2022-11-16T20:56:50.461Z,2.22
2022-11-16T20:59:20.079Z,2.72
2022-11-16T21:04:17.644Z,3.05
2022-11-16T21:06:46.006Z,2.72
2022-11-16T21:09:23.090Z,1.70
2022-11-16T21:12:10.833Z,2.80
2022-11-16T21:14:38.964Z,3.03
2022-11-16T21:17:06.980Z,2.80
2022-11-16T21:19:36.122Z,2.80
2022-11-16T21:22:06.776Z,2.05
2022-11-16T21:24:35.411Z,2.05
2022-11-16T21:27:06.107Z,2.90
2022-11-16T21:29:34.077Z,2.22
2022-11-16T21:32:02.158Z,2.63
2022-11-16T21:34:34.696Z,2.45
2022-11-16T21:37:06.822Z,1.98
2022-11-16T21:39:34.858Z,2.00
2022-11-16T21:42:04.035Z,3.00
2022-11-16T21:44:42.312Z,2.15
2022-11-16T21:47:14.600Z,1.77
2022-11-16T21:50:02.380Z,1.83
2022-11-16T21:52:31.744Z,2.03
2022-11-16T21:55:02.352Z,2.50
2022-11-16T21:57:31.197Z,2.67
2022-11-16T21:59:59.415Z,2.05
2022-11-16T22:02:27.390Z,3.47
2022-11-16T22:05:13.564Z,2.30
2022-11-16T22:07:42.934Z,1.90
2022-11-16T22:10:13.193Z,2.00
2022-11-16T22:12:41.299Z,2.10
2022-11-16T22:15:09.812Z,2.63
2022-11-16T22:17:42.291Z,3.35
2022-11-16T22:20:12.997Z,1.90
2022-11-16T22:22:42.674Z,2.13
2022-11-16T22:25:10.926Z,2.33
2022-11-16T22:28:13.423Z,2.58
2022-11-16T22:30:31.086Z,1.65
2022-11-16T22:32:59.154Z,2.80
2022-11-16T22:35:27.153Z,3.45
2022-11-16T22:37:56.666Z,2.20
2022-11-16T22:42:54.283Z,2.05
2022-11-16T22:45:22.246Z,2.17
2022-11-16T22:47:54.883Z,2.72
2022-11-16T22:50:24.852Z,2.63
2022-11-16T22:52:52.836Z,2.67
2022-11-16T22:55:20.934Z,2.80
2022-11-16T22:57:48.831Z,1.98
2022-11-16T23:00:17.401Z,2.30
2022-11-16T23:02:45.479Z,2.60
2022-11-16T23:05:13.677Z,3.55
2022-11-16T23:07:44.422Z,2.30
2022-11-16T23:10:14.096Z,3.92
2022-11-16T23:13:00.371Z,4.18
2022-11-16T23:15:51.388Z,2.97
2022-11-16T23:18:20.345Z,2.53
2022-11-16T23:21:06.862Z,3.63
2022-11-16T23:23:54.136Z,2.80
2022-11-16T23:26:44.146Z,3.47
2022-11-16T23:29:13.024Z,2.58
2022-11-16T23:31:41.062Z,4.28
2022-11-16T23:34:10.115Z,5.88
2022-11-16T23:36:38.115Z,3.90
2022-11-16T23:39:06.025Z,3.92
2022-11-16T23:41:52.373Z,3.15
2022-11-16T23:44:20.297Z,4.60
2022-11-16T23:46:48.265Z,3.03
2022-11-16T23:49:17.095Z,2.38
2022-11-16T23:51:45.281Z,5.47
2022-11-16T23:54:13.266Z,3.35
2022-11-16T23:56:43.118Z,4.75
2022-11-16T23:59:11.090Z,3.53
